sensor_id;sensor_type;location;lat;lon;timestamp;temperature;humidity
44215;DHT22;29884;47.450;19.124;2023-02-12T00:02:25;4.90;99.90
44215;DHT22;29884;47.450;19.124;2023-02-12T00:04:51;4.90;99.90
44215;DHT22;29884;47.450;19.124;2023-02-12T00:07:17;5.00;99.90
44215;DHT22;29884;47.450;19.124;2023-02-12T00:09:43;4.90;99.90
44215;DHT22;29884;47.450;19.124;2023-02-12T00:12:09;4.90;99.90
44215;DHT22;29884;47.450;19.124;2023-02-12T00:14:38;4.90;99.90
44215;DHT22;29884;47.450;19.124;2023-02-12T00:17:03;4.90;99.90
44215;DHT22;29884;47.450;19.124;2023-02-12T00:19:29;4.90;99.90
44215;DHT22;29884;47.450;19.124;2023-02-12T00:21:55;4.80;99.90
44215;DHT22;29884;47.450;19.124;2023-02-12T00:24:21;4.80;99.90
44215;DHT22;29884;47.450;19.124;2023-02-12T00:26:47;4.80;99.90
44215;DHT22;29884;47.450;19.124;2023-02-12T00:29:13;4.80;99.90
44215;DHT22;29884;47.450;19.124;2023-02-12T00:31:39;4.70;99.90
44215;DHT22;29884;47.450;19.124;2023-02-12T00:34:04;4.70;99.90
44215;DHT22;29884;47.450;19.124;2023-02-12T00:36:31;4.70;99.90
44215;DHT22;29884;47.450;19.124;2023-02-12T00:38:58;4.70;99.90
44215;DHT22;29884;47.450;19.124;2023-02-12T00:41:25;4.70;99.90
44215;DHT22;29884;47.450;19.124;2023-02-12T00:43:51;4.80;99.90
44215;DHT22;29884;47.450;19.124;2023-02-12T00:46:17;4.80;99.90
44215;DHT22;29884;47.450;19.124;2023-02-12T00:48:43;4.70;99.90
44215;DHT22;29884;47.450;19.124;2023-02-12T00:51:09;4.70;99.90
44215;DHT22;29884;47.450;19.124;2023-02-12T00:53:34;4.60;99.90
44215;DHT22;29884;47.450;19.124;2023-02-12T00:56:00;4.60;99.90
44215;DHT22;29884;47.450;19.124;2023-02-12T00:58:27;4.70;99.90
44215;DHT22;29884;47.450;19.124;2023-02-12T01:00:53;4.80;99.90
44215;DHT22;29884;47.450;19.124;2023-02-12T01:03:19;4.80;99.90
44215;DHT22;29884;47.450;19.124;2023-02-12T01:05:45;4.80;99.90
44215;DHT22;29884;47.450;19.124;2023-02-12T01:08:12;4.80;99.90
44215;DHT22;29884;47.450;19.124;2023-02-12T01:10:39;4.80;99.90
44215;DHT22;29884;47.450;19.124;2023-02-12T01:13:06;4.80;99.90
44215;DHT22;29884;47.450;19.124;2023-02-12T01:15:32;4.90;99.90
44215;DHT22;29884;47.450;19.124;2023-02-12T01:17:58;4.90;99.90
44215;DHT22;29884;47.450;19.124;2023-02-12T01:20:24;4.80;99.90
44215;DHT22;29884;47.450;19.124;2023-02-12T01:22:50;4.80;99.90
44215;DHT22;29884;47.450;19.124;2023-02-12T01:25:16;4.70;99.90
44215;DHT22;29884;47.450;19.124;2023-02-12T01:27:42;4.70;99.90
44215;DHT22;29884;47.450;19.124;2023-02-12T01:30:10;4.70;99.90
44215;DHT22;29884;47.450;19.124;2023-02-12T01:32:37;4.70;99.90
44215;DHT22;29884;47.450;19.124;2023-02-12T01:35:03;4.70;99.90
44215;DHT22;29884;47.450;19.124;2023-02-12T01:37:29;4.50;99.90
44215;DHT22;29884;47.450;19.124;2023-02-12T01:39:55;4.50;99.90
44215;DHT22;29884;47.450;19.124;2023-02-12T01:42:20;4.70;99.90
44215;DHT22;29884;47.450;19.124;2023-02-12T01:47:38;4.50;99.90
44215;DHT22;29884;47.450;19.124;2023-02-12T01:50:06;4.50;99.90
44215;DHT22;29884;47.450;19.124;2023-02-12T01:52:35;4.40;99.90
44215;DHT22;29884;47.450;19.124;2023-02-12T01:55:05;4.50;99.90
44215;DHT22;29884;47.450;19.124;2023-02-12T01:57:34;4.40;99.90
44215;DHT22;29884;47.450;19.124;2023-02-12T02:00:06;4.40;99.90
44215;DHT22;29884;47.450;19.124;2023-02-12T02:02:33;4.30;99.90
44215;DHT22;29884;47.450;19.124;2023-02-12T02:05:01;4.20;99.90
44215;DHT22;29884;47.450;19.124;2023-02-12T02:07:27;4.20;99.90
44215;DHT22;29884;47.450;19.124;2023-02-12T02:09:53;4.40;99.90
44215;DHT22;29884;47.450;19.124;2023-02-12T02:12:20;4.40;99.90
44215;DHT22;29884;47.450;19.124;2023-02-12T02:15:05;4.40;99.90
44215;DHT22;29884;47.450;19.124;2023-02-12T02:17:49;4.40;99.90
44215;DHT22;29884;47.450;19.124;2023-02-12T02:23:04;4.20;99.90
44215;DHT22;29884;47.450;19.124;2023-02-12T02:25:45;4.00;99.90
44215;DHT22;29884;47.450;19.124;2023-02-12T02:31:23;4.00;99.90
44215;DHT22;29884;47.450;19.124;2023-02-12T02:37:10;3.90;99.90
44215;DHT22;29884;47.450;19.124;2023-02-12T02:44:54;4.00;99.90
44215;DHT22;29884;47.450;19.124;2023-02-12T02:47:42;4.00;99.90
44215;DHT22;29884;47.450;19.124;2023-02-12T02:50:12;4.20;99.90
44215;DHT22;29884;47.450;19.124;2023-02-12T02:52:52;4.30;99.90
44215;DHT22;29884;47.450;19.124;2023-02-12T02:55:20;4.40;99.90
44215;DHT22;29884;47.450;19.124;2023-02-12T02:57:54;4.30;99.90
44215;DHT22;29884;47.450;19.124;2023-02-12T03:00:36;4.40;99.90
44215;DHT22;29884;47.450;19.124;2023-02-12T03:05:53;4.50;99.90
44215;DHT22;29884;47.450;19.124;2023-02-12T03:08:22;4.40;99.90
44215;DHT22;29884;47.450;19.124;2023-02-12T03:10:57;4.40;99.90
44215;DHT22;29884;47.450;19.124;2023-02-12T03:13:35;4.30;99.90
44215;DHT22;29884;47.450;19.124;2023-02-12T03:16:09;4.40;99.90
44215;DHT22;29884;47.450;19.124;2023-02-12T03:18:43;4.30;99.90
44215;DHT22;29884;47.450;19.124;2023-02-12T03:21:15;4.40;99.90
44215;DHT22;29884;47.450;19.124;2023-02-12T03:27:31;4.30;99.90
44215;DHT22;29884;47.450;19.124;2023-02-12T03:29:58;4.30;99.90
44215;DHT22;29884;47.450;19.124;2023-02-12T03:40:42;4.30;99.90
44215;DHT22;29884;47.450;19.124;2023-02-12T03:46:02;4.30;99.90
44215;DHT22;29884;47.450;19.124;2023-02-12T03:49:04;4.30;99.90
44215;DHT22;29884;47.450;19.124;2023-02-12T03:51:37;4.40;99.90
44215;DHT22;29884;47.450;19.124;2023-02-12T03:54:05;4.30;99.90
44215;DHT22;29884;47.450;19.124;2023-02-12T03:59:03;4.30;99.90
44215;DHT22;29884;47.450;19.124;2023-02-12T04:01:28;4.30;99.90
44215;DHT22;29884;47.450;19.124;2023-02-12T04:03:55;4.20;99.90
44215;DHT22;29884;47.450;19.124;2023-02-12T04:06:26;4.10;99.90
44215;DHT22;29884;47.450;19.124;2023-02-12T04:08:56;4.10;99.90
44215;DHT22;29884;47.450;19.124;2023-02-12T04:11:45;4.00;99.90
44215;DHT22;29884;47.450;19.124;2023-02-12T04:20:33;4.10;99.90
44215;DHT22;29884;47.450;19.124;2023-02-12T04:28:50;4.20;99.90
44215;DHT22;29884;47.450;19.124;2023-02-12T04:34:26;4.10;99.90
44215;DHT22;29884;47.450;19.124;2023-02-12T04:37:04;4.10;99.90
44215;DHT22;29884;47.450;19.124;2023-02-12T04:39:34;4.00;99.90
44215;DHT22;29884;47.450;19.124;2023-02-12T04:42:02;3.80;99.90
44215;DHT22;29884;47.450;19.124;2023-02-12T04:44:36;4.00;99.90
44215;DHT22;29884;47.450;19.124;2023-02-12T04:47:02;4.00;99.90
44215;DHT22;29884;47.450;19.124;2023-02-12T04:49:27;3.90;99.90
44215;DHT22;29884;47.450;19.124;2023-02-12T04:51:53;3.90;99.90
44215;DHT22;29884;47.450;19.124;2023-02-12T04:54:20;3.90;99.90
44215;DHT22;29884;47.450;19.124;2023-02-12T04:56:47;3.80;99.90
44215;DHT22;29884;47.450;19.124;2023-02-12T04:59:13;3.70;99.90
44215;DHT22;29884;47.450;19.124;2023-02-12T05:01:39;3.70;99.90
44215;DHT22;29884;47.450;19.124;2023-02-12T05:04:06;3.70;99.90
44215;DHT22;29884;47.450;19.124;2023-02-12T05:06:37;3.60;99.90
44215;DHT22;29884;47.450;19.124;2023-02-12T05:09:04;3.50;99.90
44215;DHT22;29884;47.450;19.124;2023-02-12T05:11:30;3.40;99.90
44215;DHT22;29884;47.450;19.124;2023-02-12T05:13:56;3.30;99.90
44215;DHT22;29884;47.450;19.124;2023-02-12T05:16:22;3.20;99.90
44215;DHT22;29884;47.450;19.124;2023-02-12T05:18:48;3.10;99.90
44215;DHT22;29884;47.450;19.124;2023-02-12T05:21:14;2.90;99.90
44215;DHT22;29884;47.450;19.124;2023-02-12T05:23:41;2.80;99.90
44215;DHT22;29884;47.450;19.124;2023-02-12T05:26:11;2.70;99.90
44215;DHT22;29884;47.450;19.124;2023-02-12T05:28:38;2.50;99.90
44215;DHT22;29884;47.450;19.124;2023-02-12T05:31:06;2.50;99.90
44215;DHT22;29884;47.450;19.124;2023-02-12T05:33:33;2.50;99.90
44215;DHT22;29884;47.450;19.124;2023-02-12T05:36:05;2.60;99.90
44215;DHT22;29884;47.450;19.124;2023-02-12T05:38:31;2.50;99.90
44215;DHT22;29884;47.450;19.124;2023-02-12T05:41:05;2.50;99.90
44215;DHT22;29884;47.450;19.124;2023-02-12T05:43:31;2.40;99.90
44215;DHT22;29884;47.450;19.124;2023-02-12T05:46:00;2.40;99.90
44215;DHT22;29884;47.450;19.124;2023-02-12T05:48:27;2.30;99.90
44215;DHT22;29884;47.450;19.124;2023-02-12T05:50:53;2.30;99.90
44215;DHT22;29884;47.450;19.124;2023-02-12T05:53:19;2.30;99.90
44215;DHT22;29884;47.450;19.124;2023-02-12T05:55:45;2.30;99.90
44215;DHT22;29884;47.450;19.124;2023-02-12T05:58:10;2.20;99.90
44215;DHT22;29884;47.450;19.124;2023-02-12T06:00:36;2.20;99.90
44215;DHT22;29884;47.450;19.124;2023-02-12T06:03:02;2.00;99.90
44215;DHT22;29884;47.450;19.124;2023-02-12T06:05:28;2.00;99.90
44215;DHT22;29884;47.450;19.124;2023-02-12T06:07:53;1.90;99.90
44215;DHT22;29884;47.450;19.124;2023-02-12T06:10:19;1.90;99.90
44215;DHT22;29884;47.450;19.124;2023-02-12T06:12:45;1.80;99.90
44215;DHT22;29884;47.450;19.124;2023-02-12T06:15:11;1.70;99.90
44215;DHT22;29884;47.450;19.124;2023-02-12T06:17:36;1.70;99.90
44215;DHT22;29884;47.450;19.124;2023-02-12T06:20:02;1.80;99.90
44215;DHT22;29884;47.450;19.124;2023-02-12T06:22:29;1.90;99.90
44215;DHT22;29884;47.450;19.124;2023-02-12T06:24:54;1.90;99.90
44215;DHT22;29884;47.450;19.124;2023-02-12T06:27:20;2.00;99.90
44215;DHT22;29884;47.450;19.124;2023-02-12T06:29:46;2.10;99.90
44215;DHT22;29884;47.450;19.124;2023-02-12T06:32:11;2.20;99.90
44215;DHT22;29884;47.450;19.124;2023-02-12T06:34:39;2.20;99.90
44215;DHT22;29884;47.450;19.124;2023-02-12T06:37:05;2.20;99.90
44215;DHT22;29884;47.450;19.124;2023-02-12T06:39:30;2.30;99.90
44215;DHT22;29884;47.450;19.124;2023-02-12T06:41:56;2.30;99.90
44215;DHT22;29884;47.450;19.124;2023-02-12T06:44:22;2.30;99.90
44215;DHT22;29884;47.450;19.124;2023-02-12T06:46:48;2.30;99.90
44215;DHT22;29884;47.450;19.124;2023-02-12T06:49:13;2.30;99.90
44215;DHT22;29884;47.450;19.124;2023-02-12T06:51:40;2.60;99.90
44215;DHT22;29884;47.450;19.124;2023-02-12T06:54:12;2.90;99.90
44215;DHT22;29884;47.450;19.124;2023-02-12T06:56:38;3.20;99.90
44215;DHT22;29884;47.450;19.124;2023-02-12T06:59:04;3.50;99.90
44215;DHT22;29884;47.450;19.124;2023-02-12T07:01:30;3.70;99.90
44215;DHT22;29884;47.450;19.124;2023-02-12T07:04:00;3.60;99.90
44215;DHT22;29884;47.450;19.124;2023-02-12T07:06:27;3.90;99.90
44215;DHT22;29884;47.450;19.124;2023-02-12T07:08:54;4.00;99.90
44215;DHT22;29884;47.450;19.124;2023-02-12T07:11:25;4.10;99.90
44215;DHT22;29884;47.450;19.124;2023-02-12T07:13:51;4.00;99.90
44215;DHT22;29884;47.450;19.124;2023-02-12T07:16:17;4.30;99.90
44215;DHT22;29884;47.450;19.124;2023-02-12T07:18:43;4.30;99.90
44215;DHT22;29884;47.450;19.124;2023-02-12T07:21:10;4.40;99.90
44215;DHT22;29884;47.450;19.124;2023-02-12T07:23:37;4.50;99.90
44215;DHT22;29884;47.450;19.124;2023-02-12T07:26:10;4.60;99.90
44215;DHT22;29884;47.450;19.124;2023-02-12T07:28:35;4.60;99.90
44215;DHT22;29884;47.450;19.124;2023-02-12T07:31:08;4.70;99.90
44215;DHT22;29884;47.450;19.124;2023-02-12T07:33:35;4.80;99.90
44215;DHT22;29884;47.450;19.124;2023-02-12T07:36:02;5.00;99.90
44215;DHT22;29884;47.450;19.124;2023-02-12T07:38:28;5.10;99.90
44215;DHT22;29884;47.450;19.124;2023-02-12T07:40:54;5.10;99.90
44215;DHT22;29884;47.450;19.124;2023-02-12T07:43:23;5.10;99.90
44215;DHT22;29884;47.450;19.124;2023-02-12T07:45:49;5.20;99.90
44215;DHT22;29884;47.450;19.124;2023-02-12T07:48:15;5.20;99.90
44215;DHT22;29884;47.450;19.124;2023-02-12T07:50:40;5.30;99.90
44215;DHT22;29884;47.450;19.124;2023-02-12T07:53:06;5.30;99.90
44215;DHT22;29884;47.450;19.124;2023-02-12T07:55:32;5.50;99.90
44215;DHT22;29884;47.450;19.124;2023-02-12T07:57:58;5.60;99.90
44215;DHT22;29884;47.450;19.124;2023-02-12T08:00:23;5.60;99.90
44215;DHT22;29884;47.450;19.124;2023-02-12T08:02:52;5.70;99.90
44215;DHT22;29884;47.450;19.124;2023-02-12T08:05:19;5.80;99.90
44215;DHT22;29884;47.450;19.124;2023-02-12T08:07:44;5.90;99.90
44215;DHT22;29884;47.450;19.124;2023-02-12T08:10:10;6.00;99.90
44215;DHT22;29884;47.450;19.124;2023-02-12T08:12:36;6.10;99.90
44215;DHT22;29884;47.450;19.124;2023-02-12T08:15:02;6.20;99.90
44215;DHT22;29884;47.450;19.124;2023-02-12T08:17:28;6.20;99.90
44215;DHT22;29884;47.450;19.124;2023-02-12T08:19:54;6.30;99.90
44215;DHT22;29884;47.450;19.124;2023-02-12T08:22:19;6.40;99.90
44215;DHT22;29884;47.450;19.124;2023-02-12T08:24:46;6.50;99.90
44215;DHT22;29884;47.450;19.124;2023-02-12T08:27:12;6.60;99.90
44215;DHT22;29884;47.450;19.124;2023-02-12T08:29:37;6.60;99.90
44215;DHT22;29884;47.450;19.124;2023-02-12T08:32:03;6.70;99.90
44215;DHT22;29884;47.450;19.124;2023-02-12T08:34:32;6.80;99.90
44215;DHT22;29884;47.450;19.124;2023-02-12T08:36:58;6.90;99.90
44215;DHT22;29884;47.450;19.124;2023-02-12T08:39:26;6.80;99.90
44215;DHT22;29884;47.450;19.124;2023-02-12T08:41:55;6.90;99.90
44215;DHT22;29884;47.450;19.124;2023-02-12T08:44:21;7.00;99.90
44215;DHT22;29884;47.450;19.124;2023-02-12T08:46:49;7.00;99.90
44215;DHT22;29884;47.450;19.124;2023-02-12T08:49:20;7.00;99.90
44215;DHT22;29884;47.450;19.124;2023-02-12T08:51:49;7.10;99.90
44215;DHT22;29884;47.450;19.124;2023-02-12T08:54:18;7.20;99.90
44215;DHT22;29884;47.450;19.124;2023-02-12T08:56:44;7.20;99.90
44215;DHT22;29884;47.450;19.124;2023-02-12T08:59:11;7.40;99.90
44215;DHT22;29884;47.450;19.124;2023-02-12T09:01:38;7.40;99.90
44215;DHT22;29884;47.450;19.124;2023-02-12T09:04:07;7.50;99.90
44215;DHT22;29884;47.450;19.124;2023-02-12T09:06:34;7.40;99.90
44215;DHT22;29884;47.450;19.124;2023-02-12T09:09:00;7.40;99.90
44215;DHT22;29884;47.450;19.124;2023-02-12T09:11:27;7.40;99.90
44215;DHT22;29884;47.450;19.124;2023-02-12T09:14:02;7.60;99.90
44215;DHT22;29884;47.450;19.124;2023-02-12T09:16:30;7.70;99.90
44215;DHT22;29884;47.450;19.124;2023-02-12T09:18:57;7.60;99.90
44215;DHT22;29884;47.450;19.124;2023-02-12T09:21:22;7.70;99.90
44215;DHT22;29884;47.450;19.124;2023-02-12T09:23:48;7.70;99.90
44215;DHT22;29884;47.450;19.124;2023-02-12T09:26:17;7.90;99.90
44215;DHT22;29884;47.450;19.124;2023-02-12T09:28:46;8.00;99.90
44215;DHT22;29884;47.450;19.124;2023-02-12T09:31:14;8.10;99.90
44215;DHT22;29884;47.450;19.124;2023-02-12T09:33:40;8.10;99.90
44215;DHT22;29884;47.450;19.124;2023-02-12T09:36:09;8.30;99.90
44215;DHT22;29884;47.450;19.124;2023-02-12T09:38:35;8.40;99.90
44215;DHT22;29884;47.450;19.124;2023-02-12T09:46:30;8.30;99.90
44215;DHT22;29884;47.450;19.124;2023-02-12T09:51:36;8.50;99.90
44215;DHT22;29884;47.450;19.124;2023-02-12T09:54:06;8.60;99.90
44215;DHT22;29884;47.450;19.124;2023-02-12T09:56:37;8.70;99.90
44215;DHT22;29884;47.450;19.124;2023-02-12T09:59:05;8.80;99.90
44215;DHT22;29884;47.450;19.124;2023-02-12T10:01:32;8.70;99.90
44215;DHT22;29884;47.450;19.124;2023-02-12T10:03:59;8.80;99.90
44215;DHT22;29884;47.450;19.124;2023-02-12T10:06:27;9.00;99.90
44215;DHT22;29884;47.450;19.124;2023-02-12T10:14:28;9.30;99.90
44215;DHT22;29884;47.450;19.124;2023-02-12T10:22:25;9.50;99.90
44215;DHT22;29884;47.450;19.124;2023-02-12T10:25:07;9.60;99.90
44215;DHT22;29884;47.450;19.124;2023-02-12T10:33:02;9.40;99.90
44215;DHT22;29884;47.450;19.124;2023-02-12T10:35:32;9.50;99.90
44215;DHT22;29884;47.450;19.124;2023-02-12T10:38:27;9.50;99.90
44215;DHT22;29884;47.450;19.124;2023-02-12T10:40:54;9.60;99.90
44215;DHT22;29884;47.450;19.124;2023-02-12T10:43:23;9.70;99.90
44215;DHT22;29884;47.450;19.124;2023-02-12T10:45:49;9.70;99.90
44215;DHT22;29884;47.450;19.124;2023-02-12T10:53:31;9.80;99.90
44215;DHT22;29884;47.450;19.124;2023-02-12T10:58:35;10.10;99.90
44215;DHT22;29884;47.450;19.124;2023-02-12T11:01:02;10.00;99.90
44215;DHT22;29884;47.450;19.124;2023-02-12T11:03:31;9.90;99.90
44215;DHT22;29884;47.450;19.124;2023-02-12T11:06:16;9.70;99.90
44215;DHT22;29884;47.450;19.124;2023-02-12T11:08:43;9.80;99.90
44215;DHT22;29884;47.450;19.124;2023-02-12T11:11:11;10.00;99.90
44215;DHT22;29884;47.450;19.124;2023-02-12T11:13:40;10.10;99.90
44215;DHT22;29884;47.450;19.124;2023-02-12T11:16:09;10.00;99.90
44215;DHT22;29884;47.450;19.124;2023-02-12T11:18:35;9.90;99.90
44215;DHT22;29884;47.450;19.124;2023-02-12T11:21:06;9.70;99.90
44215;DHT22;29884;47.450;19.124;2023-02-12T11:23:33;9.70;99.90
44215;DHT22;29884;47.450;19.124;2023-02-12T11:28:29;9.80;99.90
44215;DHT22;29884;47.450;19.124;2023-02-12T11:31:01;10.00;99.90
44215;DHT22;29884;47.450;19.124;2023-02-12T11:33:33;9.90;99.90
44215;DHT22;29884;47.450;19.124;2023-02-12T11:36:25;9.90;99.90
44215;DHT22;29884;47.450;19.124;2023-02-12T11:38:55;10.10;99.90
44215;DHT22;29884;47.450;19.124;2023-02-12T11:41:35;10.20;99.90
44215;DHT22;29884;47.450;19.124;2023-02-12T11:44:33;10.20;99.90
44215;DHT22;29884;47.450;19.124;2023-02-12T11:47:03;10.20;99.90
44215;DHT22;29884;47.450;19.124;2023-02-12T11:49:47;10.20;99.90
44215;DHT22;29884;47.450;19.124;2023-02-12T11:52:28;10.50;99.90
44215;DHT22;29884;47.450;19.124;2023-02-12T11:55:01;10.70;99.90
44215;DHT22;29884;47.450;19.124;2023-02-12T12:00:50;10.90;99.90
44215;DHT22;29884;47.450;19.124;2023-02-12T12:03:17;10.70;99.90
44215;DHT22;29884;47.450;19.124;2023-02-12T12:05:53;10.60;99.90
44215;DHT22;29884;47.450;19.124;2023-02-12T12:08:28;10.60;99.90
44215;DHT22;29884;47.450;19.124;2023-02-12T12:11:04;10.80;99.90
44215;DHT22;29884;47.450;19.124;2023-02-12T12:13:49;10.80;99.90
44215;DHT22;29884;47.450;19.124;2023-02-12T12:16:23;11.00;99.90
44215;DHT22;29884;47.450;19.124;2023-02-12T12:19:15;11.00;99.90
44215;DHT22;29884;47.450;19.124;2023-02-12T12:31:02;10.40;99.90
44215;DHT22;29884;47.450;19.124;2023-02-12T12:33:38;10.30;99.90
44215;DHT22;29884;47.450;19.124;2023-02-12T12:38:57;10.00;99.90
44215;DHT22;29884;47.450;19.124;2023-02-12T12:45:16;9.90;99.90
44215;DHT22;29884;47.450;19.124;2023-02-12T12:53:14;9.70;99.90
44215;DHT22;29884;47.450;19.124;2023-02-12T12:55:57;9.70;99.90
44215;DHT22;29884;47.450;19.124;2023-02-12T13:09:35;9.40;99.90
44215;DHT22;29884;47.450;19.124;2023-02-12T13:14:54;9.30;99.90
44215;DHT22;29884;47.450;19.124;2023-02-12T13:20:20;9.20;99.90
44215;DHT22;29884;47.450;19.124;2023-02-12T13:23:04;9.20;99.90
44215;DHT22;29884;47.450;19.124;2023-02-12T13:26:14;9.10;99.90
44215;DHT22;29884;47.450;19.124;2023-02-12T13:28:48;9.00;99.90
44215;DHT22;29884;47.450;19.124;2023-02-12T13:31:21;9.00;99.90
44215;DHT22;29884;47.450;19.124;2023-02-12T13:34:11;8.90;99.90
44215;DHT22;29884;47.450;19.124;2023-02-12T13:36:38;8.90;99.90
44215;DHT22;29884;47.450;19.124;2023-02-12T13:48:33;8.80;99.90
44215;DHT22;29884;47.450;19.124;2023-02-12T13:54:11;8.90;99.90
44215;DHT22;29884;47.450;19.124;2023-02-12T13:56:51;8.90;99.90
44215;DHT22;29884;47.450;19.124;2023-02-12T14:05:23;8.90;99.90
44215;DHT22;29884;47.450;19.124;2023-02-12T14:10:41;8.70;99.90
44215;DHT22;29884;47.450;19.124;2023-02-12T14:13:22;8.60;99.90
44215;DHT22;29884;47.450;19.124;2023-02-12T14:15:53;8.60;99.90
44215;DHT22;29884;47.450;19.124;2023-02-12T14:18:36;8.50;99.90
44215;DHT22;29884;47.450;19.124;2023-02-12T14:23:41;8.50;99.90
44215;DHT22;29884;47.450;19.124;2023-02-12T14:26:10;8.50;99.90
44215;DHT22;29884;47.450;19.124;2023-02-12T14:29:03;8.70;99.90
44215;DHT22;29884;47.450;19.124;2023-02-12T14:31:38;8.70;99.90
44215;DHT22;29884;47.450;19.124;2023-02-12T14:41:55;8.70;99.90
44215;DHT22;29884;47.450;19.124;2023-02-12T14:44:45;8.60;99.90
44215;DHT22;29884;47.450;19.124;2023-02-12T14:50:04;8.50;99.90
44215;DHT22;29884;47.450;19.124;2023-02-12T14:52:39;8.50;99.90
44215;DHT22;29884;47.450;19.124;2023-02-12T14:55:24;8.50;99.90
44215;DHT22;29884;47.450;19.124;2023-02-12T14:57:57;8.50;99.90
44215;DHT22;29884;47.450;19.124;2023-02-12T15:00:27;8.50;99.90
44215;DHT22;29884;47.450;19.124;2023-02-12T15:05:54;8.30;99.90
44215;DHT22;29884;47.450;19.124;2023-02-12T15:13:53;8.10;99.90
44215;DHT22;29884;47.450;19.124;2023-02-12T15:16:32;8.10;99.90
44215;DHT22;29884;47.450;19.124;2023-02-12T15:19:16;8.00;99.90
44215;DHT22;29884;47.450;19.124;2023-02-12T15:21:44;8.00;99.90
44215;DHT22;29884;47.450;19.124;2023-02-12T15:24:13;8.00;99.90
44215;DHT22;29884;47.450;19.124;2023-02-12T15:26:52;8.00;99.90
44215;DHT22;29884;47.450;19.124;2023-02-12T15:29:31;8.00;99.90
44215;DHT22;29884;47.450;19.124;2023-02-12T15:32:04;7.90;99.90
44215;DHT22;29884;47.450;19.124;2023-02-12T15:34:33;7.90;99.90
44215;DHT22;29884;47.450;19.124;2023-02-12T15:37:03;7.80;99.90
44215;DHT22;29884;47.450;19.124;2023-02-12T15:39:42;7.80;99.90
44215;DHT22;29884;47.450;19.124;2023-02-12T15:42:31;7.80;99.90
44215;DHT22;29884;47.450;19.124;2023-02-12T15:45:20;7.70;99.90
44215;DHT22;29884;47.450;19.124;2023-02-12T15:50:34;7.60;99.90
44215;DHT22;29884;47.450;19.124;2023-02-12T15:53:02;7.50;99.90
44215;DHT22;29884;47.450;19.124;2023-02-12T15:55:32;7.40;99.90
44215;DHT22;29884;47.450;19.124;2023-02-12T15:58:00;7.30;99.90
44215;DHT22;29884;47.450;19.124;2023-02-12T16:03:01;7.20;99.90
44215;DHT22;29884;47.450;19.124;2023-02-12T16:05:27;7.10;99.90
44215;DHT22;29884;47.450;19.124;2023-02-12T16:07:53;7.10;99.90
44215;DHT22;29884;47.450;19.124;2023-02-12T16:10:20;7.00;99.90
44215;DHT22;29884;47.450;19.124;2023-02-12T16:12:47;6.80;99.90
44215;DHT22;29884;47.450;19.124;2023-02-12T16:15:27;6.70;99.90
44215;DHT22;29884;47.450;19.124;2023-02-12T16:17:55;6.60;99.90
44215;DHT22;29884;47.450;19.124;2023-02-12T16:20:25;6.50;99.90
44215;DHT22;29884;47.450;19.124;2023-02-12T16:22:52;6.30;99.90
44215;DHT22;29884;47.450;19.124;2023-02-12T16:25:32;6.20;99.90
44215;DHT22;29884;47.450;19.124;2023-02-12T16:30:36;5.90;99.90
44215;DHT22;29884;47.450;19.124;2023-02-12T16:33:05;5.80;99.90
44215;DHT22;29884;47.450;19.124;2023-02-12T16:36:00;5.60;99.90
44215;DHT22;29884;47.450;19.124;2023-02-12T16:41:56;5.40;99.90
44215;DHT22;29884;47.450;19.124;2023-02-12T16:44:24;5.40;99.90
44215;DHT22;29884;47.450;19.124;2023-02-12T16:46:55;5.30;99.90
44215;DHT22;29884;47.450;19.124;2023-02-12T16:49:23;5.30;99.90
44215;DHT22;29884;47.450;19.124;2023-02-12T16:51:50;5.20;99.90
44215;DHT22;29884;47.450;19.124;2023-02-12T16:54:34;5.10;99.90
44215;DHT22;29884;47.450;19.124;2023-02-12T16:57:00;5.00;99.90
44215;DHT22;29884;47.450;19.124;2023-02-12T16:59:26;5.00;99.90
44215;DHT22;29884;47.450;19.124;2023-02-12T17:01:57;4.90;99.90
44215;DHT22;29884;47.450;19.124;2023-02-12T17:04:23;4.80;99.90
44215;DHT22;29884;47.450;19.124;2023-02-12T17:06:50;4.60;99.90
44215;DHT22;29884;47.450;19.124;2023-02-12T17:09:15;4.60;99.90
44215;DHT22;29884;47.450;19.124;2023-02-12T17:11:41;4.50;99.90
44215;DHT22;29884;47.450;19.124;2023-02-12T17:14:18;4.50;99.90
44215;DHT22;29884;47.450;19.124;2023-02-12T17:16:45;4.60;99.90
44215;DHT22;29884;47.450;19.124;2023-02-12T17:19:11;4.60;99.90
44215;DHT22;29884;47.450;19.124;2023-02-12T17:21:43;4.60;99.90
44215;DHT22;29884;47.450;19.124;2023-02-12T17:24:20;4.50;99.90
44215;DHT22;29884;47.450;19.124;2023-02-12T17:26:47;4.50;99.90
44215;DHT22;29884;47.450;19.124;2023-02-12T17:29:15;4.40;99.90
44215;DHT22;29884;47.450;19.124;2023-02-12T17:31:42;4.20;99.90
44215;DHT22;29884;47.450;19.124;2023-02-12T17:34:08;4.20;99.90
44215;DHT22;29884;47.450;19.124;2023-02-12T17:36:33;4.10;99.90
44215;DHT22;29884;47.450;19.124;2023-02-12T17:39:02;4.10;99.90
44215;DHT22;29884;47.450;19.124;2023-02-12T17:41:28;4.00;99.90
44215;DHT22;29884;47.450;19.124;2023-02-12T17:43:54;3.90;99.90
44215;DHT22;29884;47.450;19.124;2023-02-12T17:46:23;3.70;99.90
44215;DHT22;29884;47.450;19.124;2023-02-12T17:48:49;3.70;99.90
44215;DHT22;29884;47.450;19.124;2023-02-12T17:51:15;3.60;99.90
44215;DHT22;29884;47.450;19.124;2023-02-12T17:53:41;3.60;99.90
44215;DHT22;29884;47.450;19.124;2023-02-12T17:56:16;3.60;99.90
44215;DHT22;29884;47.450;19.124;2023-02-12T17:58:42;3.40;99.90
44215;DHT22;29884;47.450;19.124;2023-02-12T18:01:12;3.40;99.90
44215;DHT22;29884;47.450;19.124;2023-02-12T18:03:38;3.50;99.90
44215;DHT22;29884;47.450;19.124;2023-02-12T18:06:05;3.40;99.90
44215;DHT22;29884;47.450;19.124;2023-02-12T18:08:31;3.30;99.90
44215;DHT22;29884;47.450;19.124;2023-02-12T18:10:57;3.30;99.90
44215;DHT22;29884;47.450;19.124;2023-02-12T18:13:23;3.30;99.90
44215;DHT22;29884;47.450;19.124;2023-02-12T18:15:49;3.20;99.90
44215;DHT22;29884;47.450;19.124;2023-02-12T18:18:15;3.10;99.90
44215;DHT22;29884;47.450;19.124;2023-02-12T18:20:42;3.00;99.90
44215;DHT22;29884;47.450;19.124;2023-02-12T18:23:09;3.00;99.90
44215;DHT22;29884;47.450;19.124;2023-02-12T18:25:39;3.00;99.90
44215;DHT22;29884;47.450;19.124;2023-02-12T18:28:05;3.00;99.90
44215;DHT22;29884;47.450;19.124;2023-02-12T18:30:31;2.90;99.90
44215;DHT22;29884;47.450;19.124;2023-02-12T18:32:57;2.80;99.90
44215;DHT22;29884;47.450;19.124;2023-02-12T18:35:23;2.70;99.90
44215;DHT22;29884;47.450;19.124;2023-02-12T18:37:49;2.60;99.90
44215;DHT22;29884;47.450;19.124;2023-02-12T18:40:14;2.70;99.90
44215;DHT22;29884;47.450;19.124;2023-02-12T18:42:40;2.70;99.90
44215;DHT22;29884;47.450;19.124;2023-02-12T18:45:06;2.70;99.90
44215;DHT22;29884;47.450;19.124;2023-02-12T18:47:32;2.60;99.90
44215;DHT22;29884;47.450;19.124;2023-02-12T18:49:58;2.50;99.90